Time;durP1;ratioP1;P1;durP2;ratioP2;P2;SDS_P1;SDS_P2;PMS_P1;PMS_P2;Temp;Humidity;BMP_temperature;BMP_pressure;BME280_temperature;BME280_humidity;BME280_pressure;Samples;Min_cycle;Max_cycle;Signal;HPM_P1;HPM_P2
2023/12/07 00:01:02;;;;;;;8.50;7.35;;;;;;;0.76;100.00;101973.44;5031751;28;20249;-74
2023/12/07 00:03:27;;;;;;;9.10;7.70;;;;;;;0.70;100.00;101976.78;5031534;28;20044;-74
2023/12/07 00:05:53;;;;;;;14.95;8.00;;;;;;;0.67;100.00;101975.84;5032661;28;20275;-74
2023/12/07 00:08:18;;;;;;;11.77;8.43;;;;;;;0.62;100.00;101973.22;5032675;28;20033;-74
2023/12/07 00:10:43;;;;;;;10.43;8.35;;;;;;;0.59;100.00;101965.41;5031989;28;20033;-74
2023/12/07 00:13:09;;;;;;;9.50;7.47;;;;;;;0.56;100.00;101979.13;5014355;28;20109;-74
2023/12/07 00:15:34;;;;;;;12.40;7.43;;;;;;;0.53;100.00;101967.88;5032376;28;20041;-74
2023/12/07 00:18:00;;;;;;;9.73;7.85;;;;;;;0.51;100.00;101969.53;5031884;28;20056;-74
2023/12/07 00:20:26;;;;;;;10.75;7.75;;;;;;;0.48;100.00;101969.50;5030925;28;20033;-74
2023/12/07 00:22:51;;;;;;;12.88;7.70;;;;;;;0.46;100.00;101959.16;5033943;28;20033;-74
2023/12/07 00:25:16;;;;;;;10.98;8.18;;;;;;;0.45;100.00;101959.97;5033853;28;20332;-74
2023/12/07 00:27:42;;;;;;;10.77;7.43;;;;;;;0.45;100.00;101959.97;5033127;28;20041;-74
2023/12/07 00:30:08;;;;;;;9.35;7.70;;;;;;;0.44;100.00;101962.53;5033802;28;20037;-74
2023/12/07 00:32:34;;;;;;;9.02;7.32;;;;;;;0.42;100.00;101967.69;5033985;28;20033;-74
2023/12/07 00:34:59;;;;;;;9.13;7.38;;;;;;;0.39;100.00;101957.28;5034134;28;20029;-74
2023/12/07 00:37:24;;;;;;;9.80;7.85;;;;;;;0.36;100.00;101954.66;5034077;28;20105;-74
2023/12/07 00:39:50;;;;;;;10.43;7.60;;;;;;;0.32;100.00;101961.44;5033537;28;20025;-74
2023/12/07 00:42:15;;;;;;;8.65;7.53;;;;;;;0.30;100.00;101951.97;5033104;28;20104;-74
2023/12/07 00:44:41;;;;;;;9.50;7.03;;;;;;;0.27;100.00;101946.75;5033304;28;20040;-74
2023/12/07 00:47:06;;;;;;;9.85;7.55;;;;;;;0.26;100.00;101951.03;5033277;28;20052;-74
2023/12/07 00:49:32;;;;;;;8.90;7.28;;;;;;;0.25;100.00;101946.72;5033446;28;20079;-74
2023/12/07 00:51:57;;;;;;;10.20;6.95;;;;;;;0.23;100.00;101947.53;5034042;28;20236;-74
2023/12/07 00:54:22;;;;;;;8.25;7.30;;;;;;;0.21;100.00;101946.63;5033529;28;20059;-74
2023/12/07 00:56:48;;;;;;;11.13;7.32;;;;;;;0.20;100.00;101953.50;5033489;28;20216;-74
2023/12/07 00:59:13;;;;;;;10.82;6.90;;;;;;;0.19;100.00;101956.91;5033796;28;20221;-74
2023/12/07 01:01:38;;;;;;;8.88;7.47;;;;;;;0.17;100.00;101951.72;5033530;28;20122;-74
2023/12/07 01:04:05;;;;;;;9.85;7.85;;;;;;;0.17;100.00;101956.88;5033939;28;20072;-74
2023/12/07 01:06:31;;;;;;;8.30;6.43;;;;;;;0.17;100.00;101956.88;5037921;28;20291;-74
2023/12/07 01:08:57;;;;;;;8.75;7.13;;;;;;;0.14;100.00;101954.22;5037908;28;20061;-74
2023/12/07 01:11:22;;;;;;;7.78;6.93;;;;;;;0.16;100.00;101957.72;5037665;28;20052;-74
2023/12/07 01:13:47;;;;;;;11.77;7.55;;;;;;;0.16;100.00;101959.41;5037770;28;20100;-74
2023/12/07 01:16:13;;;;;;;9.00;7.25;;;;;;;0.16;100.00;101960.31;5037586;28;20061;-74
2023/12/07 01:18:38;;;;;;;7.85;7.05;;;;;;;0.15;100.00;101965.41;5037620;28;20040;-74
2023/12/07 01:21:04;;;;;;;8.02;6.93;;;;;;;0.16;100.00;101973.19;5037428;28;20088;-74
2023/12/07 01:23:29;;;;;;;8.05;7.03;;;;;;;0.14;100.00;101966.25;5037003;28;20045;-74
2023/12/07 01:25:54;;;;;;;8.45;6.88;;;;;;;0.12;100.00;101965.34;5037594;28;20099;-74
2023/12/07 01:28:20;;;;;;;7.38;6.63;;;;;;;0.11;100.00;101967.06;5036804;28;20037;-74
2023/12/07 01:30:45;;;;;;;8.15;6.78;;;;;;;0.10;100.00;101973.03;5037458;28;20037;-74
2023/12/07 01:33:10;;;;;;;9.48;6.68;;;;;;;0.05;100.00;101969.50;5037440;28;20045;-74
2023/12/07 01:35:36;;;;;;;9.40;6.88;;;;;;;-0.02;100.00;101972.78;5037274;28;20033;-74
2023/12/07 01:38:01;;;;;;;7.32;6.63;;;;;;;-0.03;100.00;101961.63;5037071;28;20033;-74
2023/12/07 01:40:26;;;;;;;6.93;6.22;;;;;;;-0.04;100.00;101959.91;5037234;28;20036;-74
2023/12/07 01:42:52;;;;;;;7.88;6.60;;;;;;;-0.03;100.00;101965.91;5036973;28;20112;-74
2023/12/07 01:45:18;;;;;;;9.63;6.50;;;;;;;-0.03;100.00;101963.34;5037344;28;20026;-74
2023/12/07 01:47:44;;;;;;;8.07;6.20;;;;;;;-0.04;100.00;101962.47;5036604;28;20244;-74
2023/12/07 01:50:10;;;;;;;8.45;7.20;;;;;;;-0.03;100.00;101956.47;5036943;28;20285;-74
2023/12/07 01:52:39;;;;;;;7.53;6.60;;;;;;;-0.02;100.00;101958.22;5036631;28;20075;-74
2023/12/07 01:55:07;;;;;;;7.07;6.38;;;;;;;0.01;100.00;101959.97;5036777;28;20353;-74
2023/12/07 01:57:32;;;;;;;8.18;6.40;;;;;;;0.02;100.00;101958.25;5036038;28;20351;-74
2023/12/07 01:59:57;;;;;;;7.43;6.60;;;;;;;0.03;100.00;101957.44;5036879;28;20029;-74
2023/12/07 02:04:48;;;;;;;7.32;6.63;;;;;;;0.07;100.00;101961.81;5025805;28;20120;-74
2023/12/07 02:07:14;;;;;;;7.88;6.70;;;;;;;0.07;100.00;101959.22;5037946;28;20344;-74
2023/12/07 02:09:39;;;;;;;9.20;6.88;;;;;;;0.05;100.00;101956.63;5036369;28;20289;-74
2023/12/07 02:12:05;;;;;;;10.00;6.85;;;;;;;0.07;100.00;101964.38;5036235;28;20041;-74
2023/12/07 02:14:30;;;;;;;9.23;7.28;;;;;;;0.05;100.00;101964.34;5036066;28;20034;-74
2023/12/07 02:17:14;;;;;;;8.40;6.88;;;;;;;0.04;100.00;101962.63;5035794;28;20040;-74
2023/12/07 02:19:46;;;;;;;8.23;6.65;;;;;;;0.02;100.00;101956.56;5036723;28;20040;-74
2023/12/07 02:22:17;;;;;;;7.75;6.55;;;;;;;0.01;100.00;101956.53;5035647;28;20420;-74
2023/12/07 02:24:55;;;;;;;7.75;6.68;;;;;;;-0.02;100.00;101958.22;5037854;28;20293;-74
2023/12/07 02:27:42;;;;;;;8.52;6.88;;;;;;;-0.01;100.00;101964.22;5035726;28;20044;-74
2023/12/07 02:30:10;;;;;;;10.48;7.53;;;;;;;0.00;100.00;101955.69;5035932;28;20052;-74
2023/12/07 02:32:37;;;;;;;7.25;6.55;;;;;;;-0.03;100.00;101953.88;5035668;28;20033;-74
2023/12/07 02:35:04;;;;;;;8.23;6.35;;;;;;;-0.02;100.00;101959.91;5036074;28;20061;-74
2023/12/07 02:37:37;;;;;;;7.15;6.10;;;;;;;-0.03;100.00;101961.63;5035162;28;20033;-74
2023/12/07 02:40:04;;;;;;;10.18;6.65;;;;;;;-0.04;100.00;101961.56;5036569;28;20327;-74
2023/12/07 02:42:31;;;;;;;8.68;6.97;;;;;;;-0.04;100.00;101965.03;5034592;28;20041;-74
2023/12/07 02:44:57;;;;;;;8.82;7.00;;;;;;;-0.05;100.00;101959.84;5005246;28;20051;-74
2023/12/07 02:47:22;;;;;;;6.90;6.22;;;;;;;-0.07;100.00;101958.97;5035242;28;20400;-74
2023/12/07 02:49:48;;;;;;;6.95;6.13;;;;;;;-0.09;100.00;101976.94;5035388;28;20033;-74
2023/12/07 02:52:13;;;;;;;7.43;6.70;;;;;;;-0.10;100.00;101964.91;5035265;28;20033;-74
2023/12/07 02:54:39;;;;;;;10.93;6.97;;;;;;;-0.13;100.00;101972.53;5035774;28;20065;-74
2023/12/07 02:57:04;;;;;;;8.50;6.78;;;;;;;-0.14;100.00;101968.25;5035227;28;20072;-74
2023/12/07 02:59:29;;;;;;;6.97;6.28;;;;;;;-0.13;100.00;101979.41;5035168;28;20044;-74
2023/12/07 03:01:55;;;;;;;10.02;6.68;;;;;;;-0.13;100.00;101974.25;5035871;28;20040;-74
2023/12/07 03:04:20;;;;;;;8.95;6.30;;;;;;;-0.13;100.00;101966.53;5035339;28;20344;-74
2023/12/07 03:06:45;;;;;;;8.98;7.03;;;;;;;-0.13;100.00;101971.69;5017377;28;20033;-74
2023/12/07 03:09:11;;;;;;;8.35;6.97;;;;;;;-0.13;100.00;101977.69;5035146;28;20041;-74
2023/12/07 03:11:36;;;;;;;7.63;6.70;;;;;;;-0.11;100.00;101975.16;5035295;28;20029;-74
2023/12/07 03:14:02;;;;;;;7.88;6.65;;;;;;;-0.12;100.00;101982.03;5035118;28;20060;-74
2023/12/07 03:16:27;;;;;;;9.25;6.90;;;;;;;-0.10;100.00;101984.63;5034761;28;20214;-74
2023/12/07 03:18:53;;;;;;;8.68;6.28;;;;;;;-0.10;100.00;101976.91;5034864;28;20278;-74
2023/12/07 03:21:18;;;;;;;7.60;6.78;;;;;;;-0.11;100.00;101960.59;5035136;28;20048;-74
2023/12/07 03:23:43;;;;;;;9.98;6.90;;;;;;;-0.10;100.00;101961.47;5034871;28;20057;-74
2023/12/07 03:26:09;;;;;;;8.50;6.85;;;;;;;-0.10;100.00;101976.91;5035569;28;20076;-74
2023/12/07 03:28:34;;;;;;;9.60;7.40;;;;;;;-0.10;100.00;101975.19;5034571;28;20029;-74
2023/12/07 03:30:59;;;;;;;10.65;7.35;;;;;;;-0.08;100.00;101978.66;5035261;28;20049;-74
2023/12/07 03:33:25;;;;;;;10.07;7.30;;;;;;;-0.06;100.00;101971.84;5034927;28;20095;-74
2023/12/07 03:35:50;;;;;;;9.77;7.43;;;;;;;-0.05;100.00;101977.88;5034679;28;20373;-74
2023/12/07 03:38:15;;;;;;;12.32;7.90;;;;;;;-0.03;100.00;101976.22;5034137;28;20359;-74
2023/12/07 03:40:41;;;;;;;10.35;7.45;;;;;;;0.00;100.00;101965.97;5034751;28;20041;-74
2023/12/07 03:43:06;;;;;;;10.20;7.18;;;;;;;0.04;100.00;101969.44;5035137;28;20037;-74
2023/12/07 03:45:31;;;;;;;9.32;7.82;;;;;;;0.07;100.00;101960.09;5034489;28;20092;-74
2023/12/07 03:47:57;;;;;;;9.57;7.78;;;;;;;0.10;100.00;101964.44;5034771;28;20309;-74
2023/12/07 03:50:22;;;;;;;13.65;8.35;;;;;;;0.10;100.00;101965.31;5034574;28;20040;-74
2023/12/07 03:52:48;;;;;;;12.60;8.50;;;;;;;0.09;100.00;101966.16;5034629;28;20025;-74
2023/12/07 03:55:13;;;;;;;9.20;7.93;;;;;;;0.12;100.00;101968.78;5034538;28;20040;-74
2023/12/07 03:57:38;;;;;;;10.10;8.07;;;;;;;0.15;100.00;101963.69;5033756;28;20021;-74
2023/12/07 04:00:08;;;;;;;10.80;7.78;;;;;;;0.14;100.00;101963.66;5034618;28;20227;-73
2023/12/07 04:02:33;;;;;;;10.45;7.47;;;;;;;0.11;100.00;101967.06;5016853;28;20290;-73
2023/12/07 04:05:01;;;;;;;11.65;9.05;;;;;;;0.10;100.00;101959.31;5034133;28;20220;-73
2023/12/07 04:07:28;;;;;;;9.00;8.10;;;;;;;0.10;100.00;101961.88;5033538;28;20076;-73
2023/12/07 04:09:54;;;;;;;13.02;8.18;;;;;;;0.09;100.00;101961.00;5034582;28;20074;-73
2023/12/07 04:12:19;;;;;;;10.95;8.05;;;;;;;0.10;100.00;101960.16;5033336;28;20103;-74
2023/12/07 04:14:45;;;;;;;9.43;8.02;;;;;;;0.08;100.00;101959.25;5034481;28;20328;-74
2023/12/07 04:17:10;;;;;;;17.77;9.30;;;;;;;0.09;100.00;101957.53;5034076;28;20041;-74
2023/12/07 04:19:36;;;;;;;13.13;9.32;;;;;;;0.08;100.00;101950.69;5034074;28;20044;-73
2023/12/07 04:22:01;;;;;;;16.85;9.73;;;;;;;0.10;100.00;101956.72;5034191;28;20115;-73
2023/12/07 04:24:26;;;;;;;18.05;10.60;;;;;;;0.11;100.00;101954.19;5033731;28;20053;-74
2023/12/07 04:26:52;;;;;;;15.55;11.65;;;;;;;0.11;100.00;101953.28;5034079;28;20044;-73
2023/12/07 04:29:17;;;;;;;15.57;11.02;;;;;;;0.09;100.00;101958.44;5033985;28;20037;-73
2023/12/07 04:31:43;;;;;;;16.92;11.82;;;;;;;0.09;100.00;101957.53;5033426;28;20036;-73
2023/12/07 04:34:08;;;;;;;17.88;12.32;;;;;;;0.09;100.00;101945.56;5034054;28;20048;-74
2023/12/07 04:36:34;;;;;;;17.65;11.48;;;;;;;0.12;100.00;101947.31;5033746;28;20037;-73
2023/12/07 04:38:59;;;;;;;19.95;12.60;;;;;;;0.15;100.00;101944.81;5033707;28;20029;-73
2023/12/07 04:41:24;;;;;;;25.67;13.77;;;;;;;0.15;100.00;101945.66;5033311;28;20409;-74
2023/12/07 04:43:49;;;;;;;18.88;13.27;;;;;;;0.19;100.00;101944.03;5033555;28;20384;-73
2023/12/07 04:46:15;;;;;;;18.63;13.18;;;;;;;0.19;100.00;101941.44;5033458;28;20052;-73
2023/12/07 04:48:40;;;;;;;28.05;13.82;;;;;;;0.22;100.00;101948.34;5033401;28;20075;-73
2023/12/07 04:51:06;;;;;;;24.13;14.35;;;;;;;0.24;100.00;101951.81;5034096;28;20297;-73
2023/12/07 04:53:31;;;;;;;25.13;14.70;;;;;;;0.22;100.00;101954.41;5032928;28;20494;-73
2023/12/07 04:55:56;;;;;;;25.73;14.93;;;;;;;0.24;100.00;101963.03;5033723;28;20044;-73
2023/12/07 04:58:22;;;;;;;26.00;14.45;;;;;;;0.25;100.00;101966.47;5032879;28;20021;-73
2023/12/07 05:00:47;;;;;;;28.25;14.90;;;;;;;0.25;100.00;101962.16;5033180;28;20029;-73
2023/12/07 05:03:12;;;;;;;28.13;14.13;;;;;;;0.25;100.00;101964.75;5033266;28;20329;-73
2023/12/07 05:05:38;;;;;;;27.20;14.77;;;;;;;0.25;100.00;101963.88;5033488;28;20060;-74
2023/12/07 05:08:03;;;;;;;24.38;13.63;;;;;;;0.23;100.00;101961.28;5033282;28;20037;-73
2023/12/07 05:10:28;;;;;;;22.90;14.45;;;;;;;0.23;100.00;101963.84;5033169;28;20037;-73
2023/12/07 05:12:54;;;;;;;29.60;15.63;;;;;;;0.23;100.00;101965.56;5033271;28;20294;-73
2023/12/07 05:15:19;;;;;;;23.02;13.35;;;;;;;0.24;100.00;101962.13;5032970;28;20347;-74
2023/12/07 05:17:45;;;;;;;24.70;13.73;;;;;;;0.23;100.00;101948.38;5015184;28;20275;-73
2023/12/07 05:20:12;;;;;;;25.33;14.32;;;;;;;0.25;100.00;101949.28;5033331;28;20083;-73
2023/12/07 05:22:37;;;;;;;31.63;15.35;;;;;;;0.26;100.00;101948.47;5032931;28;20047;-73
2023/12/07 05:25:04;;;;;;;30.27;15.30;;;;;;;0.29;100.00;101955.38;5035169;28;20279;-73
2023/12/07 05:27:30;;;;;;;25.98;14.38;;;;;;;0.31;100.00;101949.44;5032596;28;20250;-73
2023/12/07 05:29:55;;;;;;;28.80;15.55;;;;;;;0.35;100.00;101940.03;5033315;28;20033;-73
2023/12/07 05:32:21;;;;;;;26.63;15.23;;;;;;;0.37;100.00;101940.94;5033352;28;20113;-73
2023/12/07 05:34:46;;;;;;;25.08;14.35;;;;;;;0.37;100.00;101936.66;5032918;28;20040;-73
2023/12/07 05:37:11;;;;;;;31.17;16.08;;;;;;;0.37;100.00;101944.38;5033471;28;20041;-73
2023/12/07 05:39:37;;;;;;;29.85;16.08;;;;;;;0.37;100.00;101936.66;5033240;28;20372;-73
2023/12/07 05:42:04;;;;;;;23.92;13.73;;;;;;;0.37;100.00;101933.22;5032696;28;20044;-73
2023/12/07 05:44:29;;;;;;;21.73;13.52;;;;;;;0.39;100.00;101936.69;5032520;28;20280;-73
2023/12/07 05:46:55;;;;;;;29.25;16.42;;;;;;;0.35;100.00;101924.59;5032771;28;20225;-73
2023/12/07 05:49:22;;;;;;;23.77;14.20;;;;;;;0.38;100.00;101927.19;5032810;28;20315;-73
2023/12/07 05:51:48;;;;;;;30.40;14.88;;;;;;;0.36;100.00;101922.03;5034087;28;20087;-73
2023/12/07 05:54:14;;;;;;;25.23;15.20;;;;;;;0.37;100.00;101925.47;5036456;28;20040;-73
2023/12/07 05:56:40;;;;;;;26.05;14.20;;;;;;;0.35;100.00;101935.75;5036119;28;20095;-73
2023/12/07 05:59:06;;;;;;;25.77;14.57;;;;;;;0.35;100.00;101933.19;5036452;28;20363;-74
2023/12/07 06:01:31;;;;;;;23.83;12.68;;;;;;;0.32;100.00;101933.09;5034840;28;20037;-73
2023/12/07 06:03:58;;;;;;;24.00;12.68;;;;;;;0.32;100.00;101927.09;5036621;28;20041;-73
2023/12/07 06:06:23;;;;;;;21.63;12.30;;;;;;;0.33;100.00;101932.28;5036644;28;20048;-73
2023/12/07 06:08:48;;;;;;;22.13;12.02;;;;;;;0.34;100.00;101927.97;5036489;28;20037;-73
2023/12/07 06:11:14;;;;;;;17.50;11.02;;;;;;;0.33;100.00;101931.41;5036023;28;20037;-73
2023/12/07 06:13:39;;;;;;;23.60;11.75;;;;;;;0.30;100.00;101921.91;5036111;28;20048;-73
2023/12/07 06:16:04;;;;;;;19.23;11.30;;;;;;;0.32;100.00;101933.09;5036433;28;20116;-73
2023/12/07 06:18:30;;;;;;;17.65;10.65;;;;;;;0.34;100.00;101935.72;5035784;28;20041;-74
2023/12/07 06:20:55;;;;;;;20.15;11.95;;;;;;;0.35;100.00;101938.31;5036733;28;20034;-73
2023/12/07 06:23:21;;;;;;;21.17;11.35;;;;;;;0.37;100.00;101940.94;5035848;28;20040;-73
2023/12/07 06:25:46;;;;;;;19.45;11.10;;;;;;;0.35;100.00;101934.88;5036026;28;20045;-74
2023/12/07 06:28:12;;;;;;;20.10;11.55;;;;;;;0.38;100.00;101935.81;5035692;28;20043;-73
2023/12/07 06:30:38;;;;;;;20.88;11.77;;;;;;;0.37;100.00;101934.06;5036584;28;20116;-74
2023/12/07 06:33:04;;;;;;;21.30;12.57;;;;;;;0.39;100.00;101936.69;5036136;28;20343;-73
2023/12/07 06:35:30;;;;;;;23.35;13.05;;;;;;;0.37;100.00;101933.22;5035570;28;20041;-74
2023/12/07 06:37:56;;;;;;;22.00;12.85;;;;;;;0.40;100.00;101935.84;5036303;28;20279;-73
2023/12/07 06:40:21;;;;;;;25.40;13.48;;;;;;;0.35;100.00;101927.16;5036091;28;20109;-73
2023/12/07 06:42:48;;;;;;;23.70;13.05;;;;;;;0.35;100.00;101932.31;5036026;28;20036;-74
2023/12/07 06:45:14;;;;;;;23.88;12.35;;;;;;;0.36;100.00;101934.03;5036030;28;20263;-74
2023/12/07 06:47:43;;;;;;;26.15;12.50;;;;;;;0.35;100.00;101938.31;5035206;28;20071;-74
2023/12/07 06:50:09;;;;;;;24.58;13.05;;;;;;;0.34;100.00;101923.69;5036313;28;20194;-74
2023/12/07 06:52:35;;;;;;;29.40;12.52;;;;;;;0.34;100.00;101926.28;5035498;28;20119;-74
2023/12/07 06:55:01;;;;;;;23.90;12.32;;;;;;;0.36;100.00;101924.63;5035965;28;20112;-74
2023/12/07 06:57:27;;;;;;;25.23;12.68;;;;;;;0.40;100.00;101924.66;5035110;28;20232;-74
2023/12/07 06:59:52;;;;;;;20.15;11.52;;;;;;;0.44;100.00;101923.84;5035711;28;20378;-74
2023/12/07 07:02:18;;;;;;;25.77;12.55;;;;;;;0.44;100.00;101927.31;5035182;28;20053;-74
2023/12/07 07:04:44;;;;;;;20.67;11.82;;;;;;;0.46;100.00;101924.78;5035553;28;20032;-74
2023/12/07 07:07:09;;;;;;;20.25;11.55;;;;;;;0.47;100.00;101926.50;5035186;28;20045;-74
2023/12/07 07:09:34;;;;;;;26.13;12.25;;;;;;;0.50;100.00;101926.56;5035181;28;20037;-74
2023/12/07 07:12:00;;;;;;;20.35;10.35;;;;;;;0.56;100.00;101924.09;5035656;28;20040;-74
2023/12/07 07:14:25;;;;;;;25.95;12.35;;;;;;;0.56;100.00;101921.50;5017081;28;20093;-74
2023/12/07 07:16:52;;;;;;;24.83;12.10;;;;;;;0.53;100.00;101919.75;5034875;28;20068;-74
2023/12/07 07:19:17;;;;;;;26.20;10.90;;;;;;;0.52;100.00;101915.44;5034809;28;20053;-74
2023/12/07 07:21:43;;;;;;;23.20;11.93;;;;;;;0.56;100.00;101917.25;5034558;28;20060;-72
2023/12/07 07:24:09;;;;;;;25.92;11.90;;;;;;;0.59;100.00;101915.56;5043589;28;20322;-72
2023/12/07 07:26:34;;;;;;;25.20;11.43;;;;;;;0.67;100.00;101921.72;5053679;28;20231;-73
2023/12/07 07:29:00;;;;;;;21.20;11.40;;;;;;;0.68;100.00;101921.75;5061515;28;20114;-74
2023/12/07 07:31:25;;;;;;;25.92;11.85;;;;;;;0.64;100.00;101919.97;5053063;28;20084;-74
2023/12/07 07:33:50;;;;;;;28.90;11.70;;;;;;;0.63;100.00;101914.75;5052345;28;20086;-74
2023/12/07 07:36:16;;;;;;;20.20;10.82;;;;;;;0.68;100.00;101928.63;5052421;28;20332;-74
2023/12/07 07:38:43;;;;;;;19.70;11.18;;;;;;;0.68;100.00;101929.47;5051442;28;20025;-74
2023/12/07 07:41:09;;;;;;;19.35;11.18;;;;;;;0.68;100.00;101916.59;5054966;28;20032;-74
2023/12/07 07:43:34;;;;;;;26.13;11.20;;;;;;;0.68;100.00;101916.59;5051394;28;20382;-74
2023/12/07 07:46:00;;;;;;;21.30;10.65;;;;;;;0.68;100.00;101915.72;5061114;28;20044;-74
2023/12/07 07:48:26;;;;;;;20.08;10.13;;;;;;;0.70;100.00;101921.78;5054030;28;20056;-74
2023/12/07 07:50:51;;;;;;;22.35;11.57;;;;;;;0.69;100.00;101928.66;5054617;28;20044;-74
2023/12/07 07:53:17;;;;;;;19.95;11.23;;;;;;;0.72;100.00;101932.97;5056567;28;20032;-74
2023/12/07 07:55:42;;;;;;;21.02;11.07;;;;;;;0.72;100.00;101931.25;5051936;28;20092;-74
2023/12/07 07:58:08;;;;;;;21.35;11.07;;;;;;;0.75;100.00;101933.03;5060334;28;20046;-74
2023/12/07 08:00:34;;;;;;;26.65;11.98;;;;;;;0.74;100.00;101928.72;5061124;28;20104;-74
2023/12/07 08:02:59;;;;;;;26.25;11.98;;;;;;;0.77;100.00;101928.78;5056821;28;20316;-74
2023/12/07 08:05:25;;;;;;;22.08;11.63;;;;;;;0.79;100.00;101929.66;5051560;28;20092;-74
2023/12/07 08:07:51;;;;;;;21.25;10.88;;;;;;;0.80;100.00;101941.72;5051254;28;20048;-74
2023/12/07 08:10:16;;;;;;;20.70;11.52;;;;;;;0.80;100.00;101934.00;5066260;28;20272;-74
2023/12/07 08:12:41;;;;;;;20.83;10.77;;;;;;;0.80;100.00;101934.00;5072914;28;20036;-74
2023/12/07 08:15:10;;;;;;;25.15;11.65;;;;;;;0.84;100.00;101937.50;5072651;28;20032;-74
2023/12/07 08:17:37;;;;;;;25.77;12.63;;;;;;;0.86;100.00;101933.22;5073706;28;20484;-74
2023/12/07 08:20:03;;;;;;;27.75;13.52;;;;;;;0.87;100.00;101930.66;5073293;28;20074;-71
2023/12/07 08:22:29;;;;;;;27.20;12.38;;;;;;;0.86;100.00;101931.50;5073257;28;20100;-71
2023/12/07 08:24:54;;;;;;;27.83;12.93;;;;;;;0.90;100.00;101933.28;5058019;28;20279;-71
2023/12/07 08:27:20;;;;;;;24.20;12.35;;;;;;;0.95;100.00;101931.66;5052877;28;20029;-71
2023/12/07 08:29:46;;;;;;;28.58;13.65;;;;;;;0.95;100.00;101929.06;5033165;28;20055;-71
2023/12/07 08:32:11;;;;;;;28.67;13.57;;;;;;;0.96;100.00;101929.94;5047864;28;20281;-71
2023/12/07 08:34:37;;;;;;;28.55;13.13;;;;;;;0.98;100.00;101917.91;5045218;28;20331;-71
2023/12/07 08:37:03;;;;;;;26.73;11.75;;;;;;;0.99;100.00;101932.56;5043749;28;20328;-71
2023/12/07 08:39:29;;;;;;;29.33;13.60;;;;;;;0.99;100.00;101918.81;5045214;28;20032;-71
2023/12/07 08:41:54;;;;;;;27.30;13.05;;;;;;;0.99;100.00;101917.09;5038152;28;20033;-71
2023/12/07 08:44:19;;;;;;;34.40;14.10;;;;;;;1.01;100.00;101912.81;5034037;28;20041;-71
2023/12/07 08:46:45;;;;;;;24.35;12.98;;;;;;;1.02;100.00;101917.16;5018148;28;20083;-73
2023/12/07 08:49:11;;;;;;;28.25;13.70;;;;;;;1.02;100.00;101906.84;5029141;28;21352;-74
2023/12/07 08:51:36;;;;;;;31.80;13.63;;;;;;;1.01;100.00;101907.66;5028841;28;20041;-74
2023/12/07 08:54:01;;;;;;;30.50;12.98;;;;;;;1.01;100.00;101897.34;5029084;28;20111;-74
2023/12/07 08:56:27;;;;;;;39.33;14.85;;;;;;;1.01;100.00;101917.13;5028844;28;20435;-74
2023/12/07 08:58:52;;;;;;;31.30;13.70;;;;;;;1.03;100.00;101915.44;5029240;28;20043;-74
2023/12/07 09:01:17;;;;;;;33.55;14.18;;;;;;;1.06;100.00;101912.91;5029648;28;20037;-74
2023/12/07 09:03:43;;;;;;;36.70;14.63;;;;;;;1.10;100.00;101912.97;5029111;28;20128;-73
2023/12/07 09:06:08;;;;;;;34.45;14.15;;;;;;;1.15;100.00;101920.78;5029623;28;20351;-74
2023/12/07 09:08:34;;;;;;;42.22;15.13;;;;;;;1.14;100.00;101911.31;5028388;28;20229;-74
2023/12/07 09:10:59;;;;;;;33.95;14.15;;;;;;;1.14;100.00;101903.56;5028437;28;20033;-74
2023/12/07 09:13:24;;;;;;;36.63;15.25;;;;;;;1.15;100.00;101913.06;5029290;28;20202;-74
2023/12/07 09:15:50;;;;;;;38.58;14.10;;;;;;;1.18;100.00;101914.81;5028773;28;20049;-74
2023/12/07 09:18:15;;;;;;;35.35;14.75;;;;;;;1.19;100.00;101920.00;5028422;28;20029;-73
2023/12/07 09:20:45;;;;;;;40.20;15.95;;;;;;;1.23;100.00;101908.00;5029380;28;20064;-71
2023/12/07 09:23:12;;;;;;;48.35;16.65;;;;;;;1.25;100.00;101901.16;5029402;28;20037;-71
2023/12/07 09:25:38;;;;;;;45.47;17.88;;;;;;;1.26;100.00;101890.84;5030804;28;20036;-71
2023/12/07 09:28:04;;;;;;;47.75;17.80;;;;;;;1.28;100.00;101890.88;5031481;28;20103;-71
2023/12/07 09:30:30;;;;;;;45.17;18.15;;;;;;;1.31;100.00;101894.38;5031961;28;20126;-71
2023/12/07 09:32:56;;;;;;;53.63;19.52;;;;;;;1.31;100.00;101886.63;5014921;28;20217;-71
2023/12/07 09:35:21;;;;;;;47.78;18.27;;;;;;;1.35;100.00;101882.38;5033528;28;20239;-71
2023/12/07 09:37:48;;;;;;;48.67;19.50;;;;;;;1.38;100.00;101871.22;5033040;28;20267;-71
2023/12/07 09:40:17;;;;;;;49.00;18.48;;;;;;;1.39;100.00;101872.97;5032922;28;20783;-71
2023/12/07 09:42:43;;;;;;;;;;;;;;;1.39;100.00;101870.38;5033063;28;20738;-71
2023/12/07 09:45:09;;;;;;;50.03;17.35;;;;;;;1.41;100.00;101879.00;5033239;28;19980;-71
2023/12/07 09:47:37;;;;;;;50.58;19.45;;;;;;;1.42;100.00;101873.88;5032773;28;20029;-71
2023/12/07 09:50:03;;;;;;;46.77;18.40;;;;;;;1.43;100.00;101865.25;5032428;28;20236;-71
2023/12/07 09:52:29;;;;;;;46.78;17.63;;;;;;;1.46;100.00;101861.88;5032329;28;20578;-71
2023/12/07 09:54:56;;;;;;;42.13;16.85;;;;;;;1.48;100.00;101861.03;5031938;28;20256;-71
2023/12/07 09:57:22;;;;;;;50.90;20.38;;;;;;;1.51;100.00;101860.19;5032986;28;20064;-71
2023/12/07 09:59:48;;;;;;;53.53;21.20;;;;;;;1.52;100.00;101860.22;5031719;28;20029;-71
2023/12/07 10:02:14;;;;;;;49.42;19.85;;;;;;;1.56;100.00;101852.53;5032109;28;20085;-73
2023/12/07 10:04:39;;;;;;;54.92;20.92;;;;;;;1.59;100.00;101856.00;5032195;28;20032;-74
2023/12/07 10:07:08;;;;;;;49.72;19.30;;;;;;;1.65;100.00;101865.56;5032375;28;20040;-73
2023/12/07 10:09:37;;;;;;;53.90;19.80;;;;;;;1.66;100.00;101855.25;5031553;28;20030;-73
2023/12/07 10:12:04;;;;;;;40.72;17.40;;;;;;;1.69;100.00;101849.22;5032291;28;20260;-73
2023/12/07 10:14:30;;;;;;;35.25;18.25;;;;;;;1.71;100.00;101840.69;5031639;28;21239;-74
2023/12/07 10:16:56;;;;;;;44.05;18.17;;;;;;;1.75;100.00;101832.94;5031788;28;20085;-73
2023/12/07 10:19:23;;;;;;;52.97;21.13;;;;;;;1.78;100.00;101838.16;5031919;28;20063;-73
2023/12/07 10:21:52;;;;;;;46.22;19.77;;;;;;;1.82;100.00;101839.91;5030429;28;20032;-73
2023/12/07 10:24:20;;;;;;;60.05;22.17;;;;;;;1.81;100.00;101849.38;5040900;28;20040;-74
2023/12/07 10:26:47;;;;;;;58.47;21.67;;;;;;;1.80;100.00;101836.44;5048448;28;20032;-73
2023/12/07 10:29:12;;;;;;;45.90;19.02;;;;;;;1.82;100.00;101832.16;5048882;28;20384;-73
2023/12/07 10:31:38;;;;;;;47.20;19.98;;;;;;;1.84;100.00;101826.19;5050011;28;20366;-73
2023/12/07 10:34:04;;;;;;;49.42;19.80;;;;;;;1.88;100.00;101822.78;5050356;28;20040;-73
2023/12/07 10:36:30;;;;;;;42.97;20.77;;;;;;;1.91;100.00;101827.09;5049081;28;20056;-73
2023/12/07 10:38:55;;;;;;;40.63;20.30;;;;;;;1.94;100.00;101824.56;5045845;28;20064;-73
2023/12/07 10:41:25;;;;;;;40.83;18.50;;;;;;;1.98;100.00;101815.13;5047978;28;20025;-73
2023/12/07 10:43:59;;;;;;;37.92;18.05;;;;;;;2.02;100.00;101815.19;5049552;28;20325;-73
2023/12/07 10:46:24;;;;;;;38.03;18.48;;;;;;;2.02;100.00;101803.97;5050202;28;20044;-74
2023/12/07 10:49:01;;;;;;;38.38;17.98;;;;;;;2.06;100.00;101796.28;5049201;28;20036;-73
2023/12/07 10:51:37;;;;;;;36.40;17.88;;;;;;;2.06;100.00;101787.66;5047498;28;20028;-74
2023/12/07 10:54:04;;;;;;;36.08;16.48;;;;;;;2.07;100.00;101784.22;5050079;28;20300;-73
2023/12/07 10:56:39;;;;;;;36.80;18.05;;;;;;;2.10;100.00;101786.84;5045155;28;20316;-73
2023/12/07 10:59:08;;;;;;;34.28;16.90;;;;;;;2.10;100.00;101785.09;5043912;28;20096;-73
2023/12/07 11:01:33;;;;;;;39.42;19.02;;;;;;;2.10;100.00;101774.78;5046707;28;20138;-73
2023/12/07 11:04:00;;;;;;;31.75;16.52;;;;;;;2.14;100.00;101780.84;5043331;28;20044;-73
2023/12/07 11:06:26;;;;;;;37.50;18.27;;;;;;;2.14;100.00;101772.22;5045938;28;20055;-73
2023/12/07 11:08:59;;;;;;;34.25;17.00;;;;;;;2.15;100.00;101761.91;5045614;28;20344;-74
2023/12/07 11:11:44;;;;;;;36.92;17.73;;;;;;;2.15;100.00;101761.00;5046521;28;20041;-73